Weather at Sheba (Tel HaShomer) Medical Center

Public forecast

Using degrees Celsius for public forecast. Weather courtesy of forecast.io.

Closest aviation weather report (METAR) to Sheba (Tel HaShomer) Medical Center

Closest report is Ben Gurion International Airport, 3.0 nm (5.5 km) SE.

2024/05/29 21:50 (retrieved 20 minutes ago)

LLBG 292150Z 14004KT 9999 SCT025 21/16 Q1012 NOSIG

Closest aviation forecast (TAF) to Sheba (Tel HaShomer) Medical Center

Closest forecast is Ben Gurion International Airport, 3.0 nm (5.5 km) SE.

2024/05/29 18:10 (retrieved 4 hours ago)

TAF LLBG 291707Z 2918/3018 31006KT 9999 SCT030 BECMG 2919/2921 VRB03KT TEMPO 2921/3007 14005KT BKN025 BECMG 3007/3009 30012KT FEW030 BECMG 3015/3017 VRB03KT CAVOK TX27/3011Z TN19/3004Z